Time;durP1;ratioP1;P1;durP2;ratioP2;P2;SDS_P1;SDS_P2;PMS_P1;PMS_P2;Temp;Humidity;BMP_temperature;BMP_pressure;BME280_temperature;BME280_humidity;BME280_pressure;Samples;Min_cycle;Max_cycle;Signal;HPM_P1;HPM_P2
2023/11/19 00:01:14;;;;;;;10.65;6.25;;;;;;;4.28;100.00;100889.84;4853334;29;20045;-75
2023/11/19 00:03:41;;;;;;;13.15;6.47;;;;;;;4.28;100.00;100881.91;4859247;29;20041;-73
2023/11/19 00:06:06;;;;;;;9.98;6.32;;;;;;;4.28;100.00;100871.28;4872012;29;20129;-72
2023/11/19 00:08:32;;;;;;;10.27;6.10;;;;;;;4.30;100.00;100869.22;4849964;29;20049;-73
2023/11/19 00:10:57;;;;;;;9.77;5.80;;;;;;;4.31;100.00;100871.63;4856403;29;20460;-74
2023/11/19 00:13:23;;;;;;;9.98;6.20;;;;;;;4.31;100.00;100858.38;4849161;29;20044;-73
2023/11/19 00:15:48;;;;;;;9.38;6.40;;;;;;;4.31;100.00;100857.56;4840908;29;20121;-74
2023/11/19 00:18:15;;;;;;;9.77;5.65;;;;;;;4.31;100.00;100833.72;4853015;29;20045;-72
2023/11/19 00:20:44;;;;;;;9.60;6.10;;;;;;;4.30;100.00;100826.78;4842865;29;20050;-72
2023/11/19 00:23:10;;;;;;;9.35;5.25;;;;;;;4.30;100.00;100816.19;4863833;29;20036;-72
2023/11/19 00:25:35;;;;;;;9.10;4.93;;;;;;;4.29;100.00;100818.03;4870031;29;20460;-72
2023/11/19 00:28:01;;;;;;;9.15;5.97;;;;;;;4.32;100.00;100816.75;4835613;29;20414;-75
2023/11/19 00:30:28;;;;;;;9.30;5.10;;;;;;;4.32;100.00;100809.63;4864622;29;20048;-73
2023/11/19 00:32:54;;;;;;;8.82;5.20;;;;;;;4.33;100.00;100803.28;4851871;29;20056;-73
2023/11/19 00:35:20;;;;;;;8.82;5.38;;;;;;;4.33;100.00;100790.03;4852913;29;20074;-73
2023/11/19 00:37:47;;;;;;;11.82;5.35;;;;;;;4.35;100.00;100773.91;4836284;29;20614;-73
2023/11/19 00:40:14;;;;;;;7.47;4.60;;;;;;;4.35;100.00;100764.09;4838593;29;20041;-74
2023/11/19 00:42:41;;;;;;;7.22;4.65;;;;;;;4.36;100.00;100759.59;4850978;29;20045;-73
2023/11/19 00:45:10;;;;;;;7.88;4.63;;;;;;;4.36;100.00;100762.25;4836350;29;20049;-72
2023/11/19 00:47:36;;;;;;;7.05;4.72;;;;;;;4.41;100.00;100757.09;4863029;29;20056;-73
2023/11/19 00:50:03;;;;;;;7.80;4.75;;;;;;;4.43;100.00;100765.63;4848873;29;20037;-72
2023/11/19 00:52:28;;;;;;;7.80;4.75;;;;;;;4.43;100.00;100765.63;4819412;29;20068;-72
2023/11/19 00:54:56;;;;;;;7.90;4.47;;;;;;;4.45;100.00;100758.22;4866093;29;20506;-74
2023/11/19 00:57:22;;;;;;;6.70;3.78;;;;;;;4.42;100.00;100766.66;4866426;29;21021;-73
2023/11/19 00:59:47;;;;;;;6.40;3.95;;;;;;;4.43;100.00;100751.56;4865091;29;20044;-71
2023/11/19 01:02:14;;;;;;;6.03;3.70;;;;;;;4.42;100.00;100742.78;4850879;29;20410;-73
2023/11/19 01:04:39;;;;;;;6.05;4.18;;;;;;;4.38;100.00;100737.13;4849416;29;20578;-73
2023/11/19 01:07:12;;;;;;;6.93;3.90;;;;;;;4.40;100.00;100720.97;4851625;29;20044;-72
2023/11/19 01:09:41;;;;;;;4.80;3.30;;;;;;;4.42;100.00;100694.25;4847676;29;20148;-72
2023/11/19 01:12:19;;;;;;;5.57;3.63;;;;;;;4.40;100.00;100691.81;4861883;29;20087;-79
2023/11/19 01:14:44;;;;;;;8.43;3.50;;;;;;;4.41;100.00;100690.00;4875931;29;20155;-78
2023/11/19 01:17:10;;;;;;;5.45;3.72;;;;;;;4.44;100.00;100687.66;4870496;29;20048;-78
2023/11/19 01:19:35;;;;;;;5.70;3.60;;;;;;;4.44;100.00;100670.97;4873935;29;20141;-79
2023/11/19 01:22:01;;;;;;;5.25;3.80;;;;;;;4.45;100.00;100660.13;4873919;29;20052;-79
2023/11/19 01:24:28;;;;;;;5.20;3.42;;;;;;;4.46;100.00;100656.41;4886073;29;20040;-77
2023/11/19 01:26:54;;;;;;;6.57;3.75;;;;;;;4.42;100.00;100657.94;4868222;29;20036;-79
2023/11/19 01:29:20;;;;;;;6.22;4.00;;;;;;;4.42;100.00;100642.03;4871230;29;20074;-78
2023/11/19 01:31:47;;;;;;;5.28;3.25;;;;;;;4.44;100.00;100637.28;4874813;29;20048;-79
2023/11/19 01:34:12;;;;;;;5.63;3.20;;;;;;;4.47;100.00;100643.97;4892365;29;21245;-78
2023/11/19 01:36:39;;;;;;;4.13;2.90;;;;;;;4.45;100.00;100646.84;4882935;29;20044;-83
2023/11/19 01:39:04;;;;;;;5.55;3.20;;;;;;;4.47;100.00;100647.44;4861233;29;20116;-81
2023/11/19 01:41:38;;;;;;;4.50;2.78;;;;;;;4.49;100.00;100629.47;4886362;29;20037;-81
2023/11/19 01:44:06;;;;;;;3.78;2.72;;;;;;;4.48;100.00;100614.59;4854276;29;20041;-79
2023/11/19 01:46:32;;;;;;;4.55;2.90;;;;;;;4.49;100.00;100608.25;4841476;29;21078;-79
2023/11/19 01:49:00;;;;;;;4.63;2.78;;;;;;;4.51;100.00;100608.81;4880277;29;20032;-83
2023/11/19 01:51:27;;;;;;;4.00;2.50;;;;;;;4.53;100.00;100619.97;4878214;29;20047;-82
2023/11/19 01:53:56;;;;;;;4.13;2.88;;;;;;;4.53;100.00;100608.56;4888311;29;20091;-81
2023/11/19 01:56:23;;;;;;;3.75;2.53;;;;;;;4.52;100.00;100604.31;4874053;29;20064;-81
2023/11/19 01:58:50;;;;;;;3.28;2.05;;;;;;;4.50;100.00;100599.25;4887764;29;20414;-82
2023/11/19 02:01:16;;;;;;;3.95;2.35;;;;;;;4.53;100.00;100596.09;4879014;29;20487;-82
2023/11/19 02:03:43;;;;;;;4.60;2.33;;;;;;;4.51;100.00;100574.31;4836887;29;20049;-83
2023/11/19 02:06:10;;;;;;;3.33;2.33;;;;;;;4.53;100.00;100576.75;4860938;29;20033;-80
2023/11/19 02:08:36;;;;;;;3.72;2.10;;;;;;;4.52;100.00;100583.88;4878963;29;20040;-75
2023/11/19 02:11:02;;;;;;;2.95;2.10;;;;;;;4.52;100.00;100565.31;4877261;29;20033;-77
2023/11/19 02:13:29;;;;;;;3.20;1.98;;;;;;;4.54;100.00;100560.63;4871342;29;20045;-82
2023/11/19 02:15:55;;;;;;;3.38;1.95;;;;;;;4.55;100.00;100559.56;4861847;29;20032;-81
2023/11/19 02:18:27;;;;;;;2.28;1.73;;;;;;;4.54;100.00;100550.00;4859916;29;20036;-79
2023/11/19 02:20:54;;;;;;;3.17;1.85;;;;;;;4.56;100.00;100547.13;4875975;29;20132;-83
2023/11/19 02:23:21;;;;;;;3.22;2.08;;;;;;;4.56;100.00;100541.81;4875099;29;20616;-80
2023/11/19 02:26:13;;;;;;;3.08;1.60;;;;;;;4.59;100.00;100536.81;4874557;29;20033;-80
2023/11/19 02:28:40;;;;;;;2.30;1.60;;;;;;;4.58;100.00;100521.16;4891932;29;20132;-81
2023/11/19 02:31:10;;;;;;;2.60;1.73;;;;;;;4.57;100.00;100516.91;4876003;29;20041;-85
2023/11/19 02:33:36;;;;;;;2.58;1.40;;;;;;;4.58;100.00;100514.00;4870512;29;20036;-83
2023/11/19 02:36:06;;;;;;;2.47;1.80;;;;;;;4.56;100.00;100513.44;4871357;29;20499;-81
2023/11/19 02:38:33;;;;;;;3.05;1.90;;;;;;;4.61;100.00;100524.16;4856669;29;20036;-82
2023/11/19 02:41:02;;;;;;;2.55;1.38;;;;;;;4.62;100.00;100509.84;4875221;29;20037;-85
2023/11/19 02:43:28;;;;;;;3.00;1.20;;;;;;;4.60;100.00;100493.34;4876625;29;20093;-84
2023/11/19 02:45:55;;;;;;;2.28;1.48;;;;;;;4.62;100.00;100478.03;4876096;29;20040;-82
2023/11/19 02:48:21;;;;;;;2.55;1.48;;;;;;;4.58;100.00;100463.59;4867349;29;20052;-84
2023/11/19 02:50:47;;;;;;;1.77;1.23;;;;;;;4.62;100.00;100450.69;4874113;29;20033;-83
2023/11/19 02:53:13;;;;;;;2.15;1.40;;;;;;;4.70;100.00;100460.13;4844125;29;20040;-80
2023/11/19 02:55:40;;;;;;;2.10;1.05;;;;;;;4.71;100.00;100467.84;4866318;29;20055;-80
2023/11/19 02:58:19;;;;;;;2.75;1.45;;;;;;;4.71;100.00;100448.47;4838852;29;20121;-85
2023/11/19 03:00:52;;;;;;;3.42;1.23;;;;;;;4.72;100.00;100442.09;4873723;29;20032;-82
2023/11/19 03:03:20;;;;;;;2.22;1.67;;;;;;;4.74;100.00;100447.97;4876794;29;20041;-83
2023/11/19 03:05:47;;;;;;;1.90;1.20;;;;;;;4.75;100.00;100450.41;4849206;29;20045;-82
2023/11/19 03:08:13;;;;;;;3.78;1.48;;;;;;;4.75;100.00;100444.31;4867323;29;20037;-80
2023/11/19 03:10:39;;;;;;;2.03;1.20;;;;;;;4.74;100.00;100432.06;4871355;29;20040;-81
2023/11/19 03:13:05;;;;;;;1.90;1.30;;;;;;;4.73;100.00;100420.63;4871837;29;20045;-81
2023/11/19 03:15:31;;;;;;;2.03;1.40;;;;;;;4.74;100.00;100418.78;4875373;29;20037;-82
2023/11/19 03:17:56;;;;;;;2.30;1.35;;;;;;;4.79;100.00;100418.88;4865303;29;20036;-81
2023/11/19 03:20:23;;;;;;;1.65;1.17;;;;;;;4.81;100.00;100416.78;4893896;29;20035;-81
2023/11/19 03:22:50;;;;;;;3.30;1.67;;;;;;;4.82;100.00;100418.44;4896516;29;20064;-82
2023/11/19 03:25:16;;;;;;;3.17;1.67;;;;;;;4.80;100.00;100393.97;4880713;29;20052;-82
2023/11/19 03:27:42;;;;;;;2.15;1.60;;;;;;;4.82;100.00;100403.31;4882513;29;20049;-80
2023/11/19 03:30:11;;;;;;;1.80;1.50;;;;;;;4.80;100.00;100386.81;4885067;29;20039;-83
2023/11/19 03:32:38;;;;;;;3.17;1.50;;;;;;;4.81;100.00;100375.16;4884388;29;20060;-82
2023/11/19 03:35:07;;;;;;;2.25;1.90;;;;;;;4.84;100.00;100379.19;4876359;29;20036;-81
2023/11/19 03:37:33;;;;;;;2.40;1.90;;;;;;;4.83;100.00;100362.47;4877295;29;20122;-79
2023/11/19 03:39:59;;;;;;;3.13;1.80;;;;;;;4.87;100.00;100368.06;4871573;29;20102;-82
2023/11/19 03:42:26;;;;;;;2.67;1.73;;;;;;;4.90;100.00;100367.59;4878478;29;20060;-81
2023/11/19 03:44:53;;;;;;;2.40;1.83;;;;;;;4.92;100.00;100362.84;4887812;29;20056;-80
2023/11/19 03:47:19;;;;;;;2.88;2.20;;;;;;;4.92;100.00;100366.31;4890750;29;20041;-83
2023/11/19 03:49:49;;;;;;;2.53;1.70;;;;;;;4.95;100.00;100369.56;4872741;29;20089;-82
2023/11/19 03:52:14;;;;;;;3.85;1.92;;;;;;;4.94;100.00;100352.78;4881877;29;20040;-77
2023/11/19 03:54:40;;;;;;;2.35;1.90;;;;;;;4.95;100.00;100354.44;4859094;29;20061;-79
2023/11/19 03:57:05;;;;;;;2.40;1.98;;;;;;;4.97;100.00;100360.28;4877031;29;20053;-79
2023/11/19 03:59:33;;;;;;;;;;;;;;;4.98;100.00;100348.63;4877960;29;20079;-80
2023/11/19 04:02:00;;;;;;;2.45;1.92;;;;;;;4.99;100.00;100342.25;4889676;29;19919;-79
2023/11/19 04:04:27;;;;;;;2.70;1.90;;;;;;;4.99;100.00;100344.13;4870591;29;20029;-79
2023/11/19 04:06:53;;;;;;;2.50;1.92;;;;;;;5.00;100.00;100341.22;4853627;29;20041;-78
2023/11/19 04:09:18;;;;;;;2.88;2.30;;;;;;;5.03;100.00;100348.72;4861868;29;20128;-79
2023/11/19 04:11:46;;;;;;;2.28;1.75;;;;;;;5.03;100.00;100343.41;4880030;29;20705;-78
2023/11/19 04:14:13;;;;;;;2.72;2.42;;;;;;;5.05;100.00;100345.81;4872459;29;20110;-79
2023/11/19 04:16:39;;;;;;;2.85;2.00;;;;;;;5.05;100.00;100328.03;4864094;29;20055;-77
2023/11/19 04:19:06;;;;;;;;;;;;;;;5.07;100.00;100322.47;4881158;29;20507;-78
2023/11/19 04:21:32;;;;;;;2.33;1.85;;;;;;;5.06;100.00;100319.00;4898393;29;19919;-80
2023/11/19 04:23:58;;;;;;;2.83;2.40;;;;;;;5.09;100.00;100317.75;4866560;29;20040;-77
2023/11/19 04:26:24;;;;;;;2.88;2.33;;;;;;;5.11;100.00;100320.94;4843262;29;20037;-77
2023/11/19 04:28:49;;;;;;;3.13;2.20;;;;;;;5.11;100.00;100313.00;4879301;29;20037;-78
2023/11/19 04:31:18;;;;;;;3.85;2.63;;;;;;;5.12;100.00;100311.94;4886594;29;20041;-77
2023/11/19 04:33:44;;;;;;;2.88;2.35;;;;;;;5.15;100.00;100311.47;4878796;29;20052;-79
2023/11/19 04:36:10;;;;;;;3.38;2.70;;;;;;;5.16;100.00;100300.59;4870539;29;20037;-78
2023/11/19 04:38:38;;;;;;;3.42;1.92;;;;;;;5.19;100.00;100292.13;4859685;29;20051;-84
2023/11/19 04:41:05;;;;;;;3.03;2.22;;;;;;;5.22;100.00;100304.13;4870659;29;20037;-84
2023/11/19 04:43:31;;;;;;;3.65;1.98;;;;;;;5.24;100.00;100293.25;4896650;29;20031;-83
2023/11/19 04:45:58;;;;;;;3.88;2.20;;;;;;;5.26;100.00;100291.97;4874039;29;20040;-84
2023/11/19 04:48:24;;;;;;;3.28;2.42;;;;;;;5.29;100.00;100298.66;4878483;29;20532;-83
2023/11/19 04:50:54;;;;;;;3.20;2.20;;;;;;;5.31;100.00;100291.22;4863690;29;20615;-84
2023/11/19 04:53:19;;;;;;;3.75;2.80;;;;;;;5.34;100.00;100282.75;4886254;29;20040;-84
2023/11/19 04:55:45;;;;;;;3.42;2.20;;;;;;;5.37;100.00;100282.28;4884851;29;20036;-84
2023/11/19 04:58:11;;;;;;;4.50;3.00;;;;;;;5.40;100.00;100281.78;4877488;29;20029;-84
2023/11/19 05:00:36;;;;;;;5.35;2.78;;;;;;;5.42;100.00;100274.38;4864249;29;20088;-86
2023/11/19 05:03:02;;;;;;;4.25;2.72;;;;;;;5.46;100.00;100272.84;4851175;29;20111;-85
2023/11/19 05:05:28;;;;;;;5.93;3.28;;;;;;;5.50;100.00;100271.28;4881210;29;20128;-84
2023/11/19 05:07:54;;;;;;;4.22;2.75;;;;;;;5.53;100.00;100267.34;4863392;29;20037;-86
2023/11/19 05:10:20;;;;;;;;;;;;;;;5.55;100.00;100268.69;4880012;29;20044;-85
2023/11/19 05:12:46;;;;;;;4.85;2.92;;;;;;;5.57;100.00;100263.94;4885555;29;20036;-82
2023/11/19 05:15:12;;;;;;;6.45;3.42;;;;;;;5.61;100.00;100266.88;4890798;29;20036;-83
2023/11/19 05:17:38;;;;;;;8.10;3.90;;;;;;;5.66;100.00;100259.78;4886676;29;20051;-82
2023/11/19 05:20:05;;;;;;;7.88;4.13;;;;;;;5.70;100.00;100252.94;4880673;29;20029;-79
2023/11/19 05:22:30;;;;;;;8.32;4.43;;;;;;;5.75;100.00;100252.97;4880384;29;20037;-80
2023/11/19 05:24:55;;;;;;;9.55;4.47;;;;;;;5.80;100.00;100238.16;4844485;29;20039;-80
2023/11/19 05:27:23;;;;;;;8.98;4.82;;;;;;;5.85;100.00;100246.19;4877872;29;20041;-82
2023/11/19 05:29:49;;;;;;;9.57;4.38;;;;;;;5.88;100.00;100251.78;4889406;29;20123;-81
2023/11/19 05:32:15;;;;;;;8.80;4.75;;;;;;;5.92;100.00;100241.50;4878596;29;20498;-79
2023/11/19 05:34:41;;;;;;;11.10;5.40;;;;;;;5.96;100.00;100245.25;4877549;29;20475;-79
2023/11/19 05:37:06;;;;;;;14.43;6.15;;;;;;;6.02;100.00;100241.59;4871025;29;20045;-81
2023/11/19 05:39:32;;;;;;;15.30;6.82;;;;;;;6.08;100.00;100240.56;4878377;29;20055;-81
2023/11/19 05:41:58;;;;;;;22.85;8.20;;;;;;;6.18;100.00;100242.53;4872506;29;20245;-81
2023/11/19 05:44:24;;;;;;;26.25;9.20;;;;;;;6.26;100.00;100236.75;4877943;29;20115;-84
2023/11/19 05:46:50;;;;;;;25.70;8.30;;;;;;;6.33;100.00;100233.88;4893745;29;20037;-83
2023/11/19 05:49:16;;;;;;;25.38;9.35;;;;;;;6.39;100.00;100230.22;4874020;29;20096;-81
2023/11/19 05:51:41;;;;;;;29.85;7.93;;;;;;;6.49;100.00;100225.75;4880605;29;20029;-78
2023/11/19 05:54:08;;;;;;;22.15;7.07;;;;;;;6.49;100.00;100217.78;4882072;29;20435;-80
2023/11/19 05:56:34;;;;;;;18.60;6.72;;;;;;;6.49;100.00;100224.97;4877102;29;20048;-79
2023/11/19 05:59:01;;;;;;;26.83;8.35;;;;;;;6.50;100.00;100227.38;4865643;29;20095;-78
2023/11/19 06:01:26;;;;;;;22.33;8.57;;;;;;;6.54;100.00;100235.66;4858469;29;20052;-79
2023/11/19 06:03:52;;;;;;;22.60;8.52;;;;;;;6.56;100.00;100236.97;4874653;29;20040;-78
2023/11/19 06:06:18;;;;;;;39.78;9.88;;;;;;;6.70;100.00;100231.22;4885763;29;20160;-77
2023/11/19 06:08:44;;;;;;;38.38;11.20;;;;;;;6.75;100.00;100223.28;4881642;29;20040;-79
2023/11/19 06:11:14;;;;;;;47.92;14.00;;;;;;;7.03;100.00;100224.78;4877137;29;20045;-79
2023/11/19 06:13:40;;;;;;;59.47;14.05;;;;;;;7.32;100.00;100223.34;4877937;29;20056;-80
2023/11/19 06:16:07;;;;;;;52.28;13.35;;;;;;;7.35;100.00;100217.47;4878488;29;20036;-78
2023/11/19 06:18:33;;;;;;;54.63;13.75;;;;;;;7.50;100.00;100226.56;4880440;29;20461;-77
2023/11/19 06:20:59;;;;;;;59.28;14.38;;;;;;;7.65;100.00;100215.97;4885953;29;20072;-80
2023/11/19 06:23:24;;;;;;;51.65;14.95;;;;;;;7.81;100.00;100225.59;4873114;29;20036;-79
2023/11/19 06:25:49;;;;;;;56.53;13.98;;;;;;;7.88;100.00;100226.16;4862526;29;20040;-80
2023/11/19 06:28:15;;;;;;;60.90;13.80;;;;;;;7.94;100.00;100222.44;4876423;29;20136;-81
2023/11/19 06:30:41;;;;;;;57.42;14.02;;;;;;;7.97;100.00;100236.28;4884212;29;20044;-80
2023/11/19 06:33:07;;;;;;;49.85;13.77;;;;;;;8.23;100.00;100237.94;4880806;29;20041;-80
2023/11/19 06:35:36;;;;;;;56.03;14.68;;;;;;;8.51;100.00;100233.94;4883084;29;20396;-80
2023/11/19 06:38:04;;;;;;;52.78;14.02;;;;;;;8.58;100.00;100239.03;4877976;29;20032;-81
2023/11/19 06:40:31;;;;;;;52.45;14.65;;;;;;;8.60;100.00;100243.03;4871789;29;20040;-79
2023/11/19 06:42:56;;;;;;;45.75;13.43;;;;;;;8.66;100.00;100241.94;4871208;29;20120;-79
2023/11/19 06:45:22;;;;;;;45.30;13.80;;;;;;;8.74;100.00;100240.63;4878232;29;20055;-80
2023/11/19 06:47:48;;;;;;;53.60;13.63;;;;;;;8.83;100.00;100240.88;4874055;29;20037;-81
2023/11/19 06:50:14;;;;;;;43.97;13.38;;;;;;;8.88;100.00;100238.19;4884361;29;20801;-81
2023/11/19 06:52:40;;;;;;;45.45;12.85;;;;;;;8.89;100.00;100248.59;4888938;29;20033;-79
2023/11/19 06:55:07;;;;;;;42.47;13.27;;;;;;;8.98;100.00;100232.81;4886910;29;20048;-80
2023/11/19 06:57:32;;;;;;;34.10;10.73;;;;;;;9.17;100.00;100238.38;4886100;29;20080;-78
2023/11/19 06:59:58;;;;;;;31.77;10.20;;;;;;;9.21;100.00;100236.75;4873968;29;20098;-80
2023/11/19 07:02:24;;;;;;;25.48;8.85;;;;;;;9.23;100.00;100234.63;4870142;29;20584;-81
2023/11/19 07:04:51;;;;;;;29.23;7.82;;;;;;;9.28;100.00;100246.09;4876250;29;20051;-79
2023/11/19 07:07:17;;;;;;;29.50;8.52;;;;;;;9.35;100.00;100253.00;4889763;29;20140;-81
2023/11/19 07:09:42;;;;;;;31.08;8.30;;;;;;;9.36;100.00;100249.28;4877223;29;20065;-79
2023/11/19 07:12:08;;;;;;;25.77;8.27;;;;;;;9.39;100.00;100241.50;4876455;29;20117;-80
2023/11/19 07:14:34;;;;;;;25.92;7.72;;;;;;;9.45;100.00;100248.41;4875386;29;20496;-79
2023/11/19 07:17:00;;;;;;;27.65;7.00;;;;;;;9.44;100.00;100241.47;4868062;29;20037;-78
2023/11/19 07:19:26;;;;;;;18.88;7.25;;;;;;;9.42;100.00;100242.84;4857005;29;20037;-79
2023/11/19 07:21:54;;;;;;;26.35;6.60;;;;;;;9.35;100.00;100243.13;4858056;29;20029;-78
2023/11/19 07:24:21;;;;;;;27.45;7.28;;;;;;;9.39;100.00;100241.50;4874038;29;20052;-79
2023/11/19 07:26:47;;;;;;;26.20;6.28;;;;;;;9.38;100.00;100245.25;4892322;29;20036;-78
2023/11/19 07:29:16;;;;;;;25.23;7.20;;;;;;;9.39;100.00;100254.84;4864514;29;20087;-77
2023/11/19 07:31:44;;;;;;;19.40;5.53;;;;;;;9.44;100.00;100259.41;4857376;29;20095;-79
2023/11/19 07:34:11;;;;;;;22.10;5.88;;;;;;;9.50;100.00;100261.78;4883043;29;20037;-79
2023/11/19 07:36:37;;;;;;;17.17;5.95;;;;;;;9.50;100.00;100261.78;4878156;29;20041;-79
2023/11/19 07:39:04;;;;;;;14.73;5.03;;;;;;;9.51;100.00;100249.22;4886913;29;20056;-79
2023/11/19 07:41:31;;;;;;;17.42;5.50;;;;;;;9.53;100.00;100255.88;4899517;29;20582;-79
2023/11/19 07:43:56;;;;;;;24.40;5.85;;;;;;;9.60;100.00;100238.72;4890532;29;20075;-76
2023/11/19 07:46:22;;;;;;;23.40;6.28;;;;;;;9.67;100.00;100261.41;4878642;29;20716;-80
2023/11/19 07:48:48;;;;;;;25.08;6.03;;;;;;;9.70;100.00;100260.09;4875107;29;20121;-79
2023/11/19 07:51:14;;;;;;;28.17;5.45;;;;;;;9.73;100.00;100262.19;4875386;29;20040;-80
2023/11/19 07:53:41;;;;;;;21.73;5.50;;;;;;;9.76;100.00;100259.00;4846803;29;20056;-78
2023/11/19 07:56:10;;;;;;;29.15;5.93;;;;;;;9.80;100.00;100262.69;4874826;29;20041;-79
2023/11/19 07:58:37;;;;;;;22.92;5.38;;;;;;;9.85;100.00;100262.66;4874952;29;20045;-78
2023/11/19 08:01:03;;;;;;;29.63;5.40;;;;;;;9.89;100.00;100274.44;4881022;29;20048;-79
2023/11/19 08:03:29;;;;;;;23.38;5.40;;;;;;;9.92;100.00;100273.88;4888361;29;20041;-80
2023/11/19 08:05:57;;;;;;;30.08;5.75;;;;;;;9.96;100.00;100274.91;4891058;29;20543;-78
2023/11/19 08:08:23;;;;;;;26.38;5.35;;;;;;;10.02;100.00;100273.78;4859212;29;20065;-78
2023/11/19 08:10:51;;;;;;;27.35;5.35;;;;;;;10.03;100.00;100280.75;4881457;29;20029;-79
2023/11/19 08:13:20;;;;;;;20.60;5.43;;;;;;;10.02;100.00;100289.03;4879745;29;20037;-77
2023/11/19 08:15:46;;;;;;;22.50;4.32;;;;;;;9.99;100.00;100279.72;4872238;29;20037;-80
2023/11/19 08:18:12;;;;;;;18.42;3.65;;;;;;;10.02;100.00;100289.84;4871764;29;20051;-78
2023/11/19 08:20:37;;;;;;;27.13;5.15;;;;;;;10.04;100.00;100293.06;4864047;29;20045;-78
2023/11/19 08:23:06;;;;;;;22.92;4.07;;;;;;;10.06;100.00;100290.09;4879131;29;20047;-81
2023/11/19 08:25:33;;;;;;;23.63;4.32;;;;;;;10.07;100.00;100286.34;4878868;29;20140;-81
2023/11/19 08:28:00;;;;;;;29.65;5.60;;;;;;;10.05;100.00;100289.31;4874713;29;20044;-79
2023/11/19 08:30:26;;;;;;;34.35;5.07;;;;;;;10.08;100.00;100294.09;4851897;29;20132;-79
2023/11/19 08:32:51;;;;;;;23.63;4.13;;;;;;;10.09;100.00;100285.00;4875909;29;20121;-78
2023/11/19 08:35:17;;;;;;;25.83;3.92;;;;;;;10.11;100.00;100298.91;4887481;29;20691;-80
2023/11/19 08:37:43;;;;;;;19.92;3.25;;;;;;;10.14;100.00;100292.19;4880377;29;20044;-80
2023/11/19 08:40:09;;;;;;;25.15;4.38;;;;;;;10.15;100.00;100298.34;4862969;29;20036;-79
2023/11/19 08:42:35;;;;;;;29.40;4.13;;;;;;;10.16;100.00;100307.97;4883060;29;20068;-77
2023/11/19 08:45:00;;;;;;;24.63;4.03;;;;;;;10.15;100.00;100309.03;4860635;29;20037;-79
2023/11/19 08:47:26;;;;;;;27.40;4.20;;;;;;;10.16;100.00;100305.28;4871888;29;20400;-80
2023/11/19 08:49:55;;;;;;;28.77;4.63;;;;;;;10.16;100.00;100299.94;4883398;29;20044;-78
2023/11/19 08:52:22;;;;;;;28.17;4.22;;;;;;;10.16;100.00;100300.75;4879251;29;20101;-80
2023/11/19 08:54:48;;;;;;;27.77;4.40;;;;;;;10.19;100.00;100310.88;4877229;29;20045;-81
2023/11/19 08:57:13;;;;;;;28.77;3.85;;;;;;;10.23;100.00;100311.16;4875793;29;20033;-80
2023/11/19 08:59:39;;;;;;;24.20;4.18;;;;;;;10.24;100.00;100304.75;4872526;29;20044;-80
2023/11/19 09:02:06;;;;;;;25.98;3.53;;;;;;;10.27;100.00;100313.00;4889194;29;20123;-79
2023/11/19 09:04:32;;;;;;;26.92;4.22;;;;;;;10.28;100.00;100319.16;4862674;29;20514;-80
2023/11/19 09:06:59;;;;;;;28.83;4.53;;;;;;;10.33;100.00;100327.16;4880897;29;20032;-79
2023/11/19 09:09:25;;;;;;;22.27;3.28;;;;;;;10.33;100.00;100329.84;4840041;29;20512;-79
2023/11/19 09:11:51;;;;;;;26.52;3.83;;;;;;;10.33;100.00;100329.84;4859973;29;20117;-80
2023/11/19 09:14:18;;;;;;;24.08;4.03;;;;;;;10.35;100.00;100330.34;4857648;29;20052;-79
2023/11/19 09:16:44;;;;;;;19.48;3.70;;;;;;;10.38;100.00;100335.97;4875603;29;20041;-82
2023/11/19 09:19:09;;;;;;;30.67;4.55;;;;;;;10.39;100.00;100328.72;4861642;29;20040;-79
2023/11/19 09:21:38;;;;;;;28.25;4.35;;;;;;;10.41;100.00;100326.56;4871993;29;20132;-80
2023/11/19 09:24:04;;;;;;;27.90;3.75;;;;;;;10.41;100.00;100329.25;4871108;29;20041;-79
2023/11/19 09:26:30;;;;;;;26.02;3.25;;;;;;;10.45;100.00;100334.84;4844206;29;20041;-78
2023/11/19 09:28:56;;;;;;;22.60;3.92;;;;;;;10.43;100.00;100337.81;4871429;29;20080;-79
2023/11/19 09:31:22;;;;;;;25.70;3.75;;;;;;;10.45;100.00;100332.97;4860674;29;20055;-79
2023/11/19 09:33:48;;;;;;;29.50;4.03;;;;;;;10.51;100.00;100334.53;4886937;29;20041;-79
2023/11/19 09:36:16;;;;;;;32.28;4.45;;;;;;;10.52;100.00;100332.66;4872617;29;20040;-78
2023/11/19 09:38:43;;;;;;;37.03;5.00;;;;;;;10.53;100.00;100328.91;4887657;29;20043;-78
2023/11/19 09:41:12;;;;;;;21.08;3.78;;;;;;;10.57;100.00;100338.78;4864158;29;20700;-80
2023/11/19 09:43:39;;;;;;;24.50;4.22;;;;;;;10.55;100.00;100340.91;4887373;29;20044;-77
2023/11/19 09:46:11;;;;;;;30.83;4.38;;;;;;;10.54;100.00;100331.28;4882954;29;20036;-79
2023/11/19 09:48:38;;;;;;;31.05;4.63;;;;;;;10.55;100.00;100332.09;4891352;29;20072;-80
2023/11/19 09:51:08;;;;;;;31.73;4.45;;;;;;;10.54;100.00;100341.22;4886446;29;20037;-77
2023/11/19 09:53:35;;;;;;;26.30;4.28;;;;;;;10.54;100.00;100328.63;4876301;29;20037;-78
2023/11/19 09:56:03;;;;;;;28.98;4.90;;;;;;;10.52;100.00;100336.13;4877478;29;20040;-78
2023/11/19 09:58:32;;;;;;;25.30;3.92;;;;;;;10.48;100.00;100337.75;4881502;29;20102;-78
2023/11/19 10:00:59;;;;;;;28.13;3.70;;;;;;;10.45;100.00;100335.66;4876549;29;20045;-82
2023/11/19 10:03:26;;;;;;;31.30;3.88;;;;;;;10.44;100.00;100331.38;4868377;29;20075;-81
2023/11/19 10:05:55;;;;;;;27.10;4.28;;;;;;;10.44;100.00;100331.38;4861685;29;20028;-80
2023/11/19 10:08:20;;;;;;;26.13;4.03;;;;;;;10.44;100.00;100330.59;4878416;29;20045;-82
2023/11/19 10:10:47;;;;;;;25.83;4.15;;;;;;;10.44;100.00;100326.03;4889080;29;20085;-87
2023/11/19 10:13:14;;;;;;;38.28;4.57;;;;;;;10.46;100.00;100320.38;4873567;29;20053;-84
2023/11/19 10:15:40;;;;;;;29.45;4.80;;;;;;;10.49;100.00;100315.25;4879995;29;20431;-83
2023/11/19 10:18:05;;;;;;;31.10;4.03;;;;;;;10.53;100.00;100321.66;4875426;29;20092;-83
2023/11/19 10:20:40;;;;;;;20.88;3.95;;;;;;;10.58;100.00;100327.00;4871301;29;20046;-82
2023/11/19 10:23:06;;;;;;;27.45;3.90;;;;;;;10.58;100.00;100324.31;4867299;29;20036;-83
2023/11/19 10:25:32;;;;;;;26.67;4.35;;;;;;;10.60;100.00;100326.72;4880058;29;20458;-83
2023/11/19 10:27:58;;;;;;;23.75;3.60;;;;;;;10.57;100.00;100333.44;4878799;29;20448;-80
2023/11/19 10:30:29;;;;;;;21.02;2.92;;;;;;;10.55;100.00;100319.50;4874077;29;20436;-81
2023/11/19 10:33:05;;;;;;;29.08;3.92;;;;;;;10.54;100.00;100331.28;4877328;29;20033;-82
2023/11/19 10:35:35;;;;;;;30.67;3.88;;;;;;;10.52;100.00;100329.97;4873013;29;20071;-81
2023/11/19 10:38:14;;;;;;;22.55;3.70;;;;;;;10.49;100.00;100325.97;4863286;29;20036;-79
2023/11/19 10:40:40;;;;;;;23.50;3.53;;;;;;;10.47;100.00;100338.03;4866241;29;20045;-82
2023/11/19 10:43:10;;;;;;;27.45;4.05;;;;;;;10.46;100.00;100331.91;4877250;29;20044;-82
2023/11/19 10:45:37;;;;;;;27.92;4.18;;;;;;;10.49;100.00;100323.28;4861272;29;20033;-81
2023/11/19 10:48:06;;;;;;;29.17;4.35;;;;;;;10.52;100.00;100338.00;4872481;29;20039;-80
2023/11/19 10:50:37;;;;;;;31.38;4.35;;;;;;;10.52;100.00;100330.78;4869983;29;20041;-80
2023/11/19 10:53:04;;;;;;;26.48;4.80;;;;;;;10.55;100.00;100334.78;4856304;29;20041;-80
2023/11/19 10:55:40;;;;;;;28.20;3.67;;;;;;;10.56;100.00;100339.03;4865549;29;20052;-80
2023/11/19 10:58:07;;;;;;;25.95;4.05;;;;;;;10.53;100.00;100332.38;4868085;29;20100;-79
2023/11/19 11:00:50;;;;;;;29.60;4.03;;;;;;;10.48;100.00;100339.63;4865223;29;20065;-79
2023/11/19 11:03:22;;;;;;;31.70;4.38;;;;;;;10.45;100.00;100330.31;4862065;29;20036;-81
2023/11/19 11:05:49;;;;;;;28.98;3.88;;;;;;;10.46;100.00;100334.56;4870868;29;20059;-81
2023/11/19 11:08:16;;;;;;;23.92;3.38;;;;;;;10.48;100.00;100339.63;4853420;29;20041;-80
2023/11/19 11:10:51;;;;;;;27.85;4.28;;;;;;;10.49;100.00;100342.03;4872934;29;20383;-81
2023/11/19 11:13:18;;;;;;;23.70;3.80;;;;;;;10.47;100.00;100344.19;4870794;29;20047;-80
2023/11/19 11:15:46;;;;;;;26.98;3.95;;;;;;;10.45;100.00;100324.94;4888924;29;20444;-79
2023/11/19 11:18:13;;;;;;;22.08;3.63;;;;;;;10.44;100.00;100328.69;4860062;29;20033;-79